Iver, United Kingdom
Current Conditions -  °F | °C
As of 9:20 AM on Friday 24 Oct 2014 (Local Time) from EGLL Reporting Station
Scattered Clouds Scattered Clouds  
Wind Chill: 59°   Ceiling: Unl
Heat Index: 59°   Visibility: 6mi
Dew Point: 55°   Wind: 7mph
Humidity: 88%   Direction: 210°SSW
Pressure: 29.97"   Gusts: NA
Location:  51.5°N, 0.5°W
Report Text: EGLL 240820Z 21006KT 170V250 9999 SCT013 15/13 Q1015 TEMPO BKN012
Loading
Personal Weather Stations






























Interactive Weather Map New forecast layout! Learn more

10-Day Weather Forecast

Advertisements
Track Severe Weather on mobile